KMKE/MKE METAR and TAF weather

Enter ICAO airport designator
Station Type Date Time Source
KMKE METAR 2019/06/19 06:52 UTC NOAA

KMKE 190652Z 27005KT 10SM -RA BKN038 OVC047 19/14 A2985 RMK AO2 RAB25 SLP104 P0000 T01890144


Station Type Date Time Source
KMKE Decoded METAR 2019/06/19 06:52 UTC NOAA

GEN MITCHELL INTERNATIONAL AIRPORT, WI, United States (KMKE) 42-57N 87-54W 206M
Jun 19, 2019 - 02:52 AM EDT / 2019.06.19 0652 UTC
Wind: from the W (270 degrees) at 6 MPH (5 KT):0
Visibility: 10 mile(s):0
Sky conditions: overcast
Weather: light rain
Precipitation last hour: A trace
Temperature: 66.0 F (18.9 C)
Dew Point: 57.9 F (14.4 C)
Relative Humidity: 75%
Pressure (altimeter): 29.85 in. Hg (1010 hPa)
ob: KMKE 190652Z 27005KT 10SM -RA BKN038 OVC047 19/14 A2985 RMK AO2 RAB25 SLP104 P0000 T01890144
cycle: 7

Station Type Date Time Source
KMKE TAF 2019/06/19 06:22 UTC NOAA

TAF KMKE 190520Z 1906/2012 VRB03KT P6SM OVC040
TEMPO 1906/1910 -SHRA BKN035
FM191000 00000KT 5SM BR VCSH OVC008
FM192100 04010KT P6SM BKN012
FM200900 01010KT P6SM BKN006

Example: see airport list